Terminal Aerodrome Forecast
Issued by NWS

Home | Current Version | Previous Version | Text Only | Print | Product List | Glossary On
Versions: 1 2 3 4 5 6 7 8 9 10 11 12 13 14
000
FTUS44 KJAN 202300
TAFHKS
TAF
KHKS 202320Z 2100/2124 03004KT P6SM SCT250
     FM210900 04003KT 5SM BR FEW025 SCT250
     FM211200 05003KT 5SM BR BKN020 OVC250
     FM211500 07005KT P6SM SCT025 BKN250=

USA.gov is the U.S. government's official web portal to all federal, state and local government web resources and services.